Time;durP1;ratioP1;P1;durP2;ratioP2;P2;SDS_P1;SDS_P2;PMS_P1;PMS_P2;Temp;Humidity;BMP_temperature;BMP_pressure;BME280_temperature;BME280_humidity;BME280_pressure;Samples;Min_cycle;Max_cycle;Signal;HPM_P1;HPM_P2
2023/11/03 00:01:46;;;;;;;6.38;2.47;;;;;;;7.81;100.00;97503.09;6079417;19;20007;-70
2023/11/03 00:03:51;;;;;;;4.72;1.80;;;;;;;7.78;100.00;97521.66;6077384;19;20003;-70
2023/11/03 00:05:59;;;;;;;7.60;1.92;;;;;;;7.80;100.00;97516.31;6076540;19;20015;-70
2023/11/03 00:08:04;;;;;;;4.07;1.85;;;;;;;7.81;100.00;97524.00;6073111;19;20821;-70
2023/11/03 00:10:09;;;;;;;7.63;2.28;;;;;;;7.76;100.00;97536.63;6076896;19;20502;-71
2023/11/03 00:12:14;;;;;;;6.68;1.83;;;;;;;7.84;100.00;97525.56;6074299;19;20010;-71
2023/11/03 00:14:19;;;;;;;6.60;2.35;;;;;;;7.84;100.00;97526.38;6074386;19;20042;-71
2023/11/03 00:16:24;;;;;;;7.50;2.22;;;;;;;7.85;100.00;97537.69;6075029;19;20064;-72
2023/11/03 00:18:29;;;;;;;4.38;2.35;;;;;;;7.90;100.00;97538.13;6075195;19;20090;-72
2023/11/03 00:20:34;;;;;;;3.65;2.00;;;;;;;7.88;100.00;97529.59;6074045;19;20014;-70
2023/11/03 00:22:42;;;;;;;5.53;1.92;;;;;;;7.88;100.00;97542.66;6075349;19;20788;-71
2023/11/03 00:24:47;;;;;;;6.78;2.20;;;;;;;7.93;100.00;97540.50;6076829;19;20002;-69
2023/11/03 00:26:54;;;;;;;4.32;2.08;;;;;;;7.96;100.00;97542.03;6074831;19;20011;-71
2023/11/03 00:28:59;;;;;;;8.20;2.45;;;;;;;7.93;100.00;97544.91;6077141;19;20771;-71
2023/11/03 00:31:04;;;;;;;8.05;2.10;;;;;;;7.92;100.00;97549.28;6076229;19;20016;-72
2023/11/03 00:33:09;;;;;;;10.93;3.20;;;;;;;7.94;100.00;97544.75;6075514;19;20014;-72
2023/11/03 00:35:16;;;;;;;11.43;3.78;;;;;;;7.97;100.00;97567.19;6074971;19;20007;-71
2023/11/03 00:37:21;;;;;;;9.85;2.58;;;;;;;7.96;100.00;97552.47;6077043;19;20182;-70
2023/11/03 00:39:29;;;;;;;6.43;2.20;;;;;;;7.97;100.00;97559.34;6074864;19;20006;-70
2023/11/03 00:41:34;;;;;;;2.00;1.70;;;;;;;7.96;100.00;97560.31;6075355;19;20158;-70
2023/11/03 00:43:40;;;;;;;3.72;2.10;;;;;;;7.98;100.00;97561.00;6077246;19;20038;-70
2023/11/03 00:45:45;;;;;;;13.40;2.50;;;;;;;7.96;100.00;97553.31;6076989;19;20391;-69
2023/11/03 00:47:48;;;;;;;11.85;2.65;;;;;;;7.94;100.00;97557.81;6074382;19;20006;-70
2023/11/03 00:49:53;;;;;;;4.72;2.38;;;;;;;7.96;100.00;97565.56;6074939;19;20014;-69
2023/11/03 00:52:00;;;;;;;3.67;2.47;;;;;;;7.95;100.00;97575.16;6075082;19;20042;-70
2023/11/03 00:54:06;;;;;;;5.22;2.40;;;;;;;7.93;100.00;97586.72;6074985;19;20025;-69
2023/11/03 00:56:19;;;;;;;6.70;2.30;;;;;;;7.98;100.00;97581.91;6070823;19;20010;-70
2023/11/03 00:58:24;;;;;;;3.15;1.77;;;;;;;7.94;100.00;97589.19;6071822;19;20054;-71
2023/11/03 01:00:34;;;;;;;9.40;2.53;;;;;;;7.93;100.00;97595.41;6075857;19;20031;-70
2023/11/03 01:02:39;;;;;;;7.32;2.45;;;;;;;7.95;100.00;97595.25;6074250;19;20163;-71
2023/11/03 01:04:45;;;;;;;7.95;2.83;;;;;;;7.94;100.00;97598.84;6075349;19;20007;-71
2023/11/03 01:06:50;;;;;;;9.52;2.80;;;;;;;7.93;100.00;97605.03;6073729;19;20041;-71
2023/11/03 01:08:57;;;;;;;6.05;2.47;;;;;;;7.96;100.00;97602.16;6075438;19;20015;-70
2023/11/03 01:11:07;;;;;;;6.43;1.98;;;;;;;7.93;100.00;97610.25;6074034;19;20010;-69
2023/11/03 01:13:15;;;;;;;4.32;1.92;;;;;;;7.95;100.00;97597.88;6075133;19;20019;-70
2023/11/03 01:15:21;;;;;;;7.60;4.15;;;;;;;7.94;100.00;97597.03;6072610;19;20014;-71
2023/11/03 01:17:27;;;;;;;4.93;2.25;;;;;;;7.93;100.00;97618.09;6076500;19;20173;-71
2023/11/03 01:19:32;;;;;;;4.75;2.35;;;;;;;7.95;100.00;97616.16;6076813;19;20641;-71
2023/11/03 01:21:39;;;;;;;7.15;2.80;;;;;;;7.95;100.00;97605.72;6073181;19;20057;-70
2023/11/03 01:23:47;;;;;;;6.78;2.15;;;;;;;7.96;100.00;97604.78;6072656;19;19999;-70
2023/11/03 01:25:52;;;;;;;6.40;2.33;;;;;;;7.96;100.00;97612.63;6073486;19;20065;-71
2023/11/03 01:27:57;;;;;;;6.60;2.78;;;;;;;7.96;100.00;97610.00;6071263;19;20015;-70
2023/11/03 01:30:07;;;;;;;9.73;2.80;;;;;;;7.96;100.00;97608.22;6073813;19;20035;-70
2023/11/03 01:32:13;;;;;;;8.52;2.60;;;;;;;7.98;100.00;97602.84;6071487;19;20007;-70
2023/11/03 01:34:18;;;;;;;4.72;1.95;;;;;;;8.00;100.00;97608.78;6070708;19;20550;-70
2023/11/03 01:36:23;;;;;;;8.35;2.85;;;;;;;8.03;100.00;97625.06;6072062;19;20790;-71
2023/11/03 01:38:25;;;;;;;8.15;2.53;;;;;;;8.07;100.00;97623.03;6073183;19;20105;-71
2023/11/03 01:40:31;;;;;;;8.02;2.78;;;;;;;8.10;100.00;97620.16;6074623;19;20062;-70
2023/11/03 01:42:36;;;;;;;4.53;2.60;;;;;;;8.12;100.00;97628.72;6074896;19;20007;-70
2023/11/03 01:44:41;;;;;;;12.18;2.88;;;;;;;8.16;100.00;97627.47;6072272;19;20044;-69
2023/11/03 01:46:52;;;;;;;7.88;2.70;;;;;;;8.16;100.00;97622.25;6071895;19;20103;-70
2023/11/03 01:48:55;;;;;;;7.32;2.33;;;;;;;8.23;100.00;97618.19;6073393;19;20101;-71
2023/11/03 01:51:02;;;;;;;9.43;2.55;;;;;;;8.27;100.00;97617.00;6073978;19;20473;-71
2023/11/03 01:53:07;;;;;;;10.60;2.22;;;;;;;8.23;100.00;97628.66;6075972;19;20013;-71
2023/11/03 01:55:13;;;;;;;8.18;3.40;;;;;;;8.27;100.00;97619.59;6075686;19;20023;-71
2023/11/03 01:57:22;;;;;;;10.60;2.63;;;;;;;8.29;100.00;97628.16;6070515;19;20011;-72
2023/11/03 01:59:28;;;;;;;13.20;3.80;;;;;;;8.26;100.00;97623.16;6071258;19;20027;-72
2023/11/03 02:01:36;;;;;;;12.18;2.72;;;;;;;8.25;100.00;97626.75;6075820;19;20022;-71
2023/11/03 02:03:43;;;;;;;7.50;3.08;;;;;;;8.27;100.00;97610.94;6075363;19;20420;-71
2023/11/03 02:05:46;;;;;;;8.20;2.78;;;;;;;8.31;100.00;97618.38;6075785;19;20364;-71
2023/11/03 02:07:51;;;;;;;9.48;4.45;;;;;;;8.36;100.00;97628.47;6076868;19;20011;-70
2023/11/03 02:09:56;;;;;;;11.75;3.00;;;;;;;8.35;100.00;97626.81;6074826;19;20435;-71
2023/11/03 02:11:58;;;;;;;7.03;2.80;;;;;;;8.37;100.00;97627.50;6075360;19;20025;-72
2023/11/03 02:14:03;;;;;;;10.98;3.85;;;;;;;8.33;100.00;97632.16;6079233;19;20161;-72
2023/11/03 02:16:09;;;;;;;5.20;2.67;;;;;;;8.36;100.00;97618.00;6073924;19;20003;-72
2023/11/03 02:18:12;;;;;;;9.90;3.22;;;;;;;8.33;100.00;97624.31;6075589;19;20100;-71
2023/11/03 02:20:21;;;;;;;7.20;2.75;;;;;;;8.34;100.00;97614.69;6070927;19;20013;-71
2023/11/03 02:22:26;;;;;;;16.58;3.53;;;;;;;8.32;100.00;97617.44;6071266;19;20013;-71
2023/11/03 02:24:33;;;;;;;5.88;3.28;;;;;;;8.35;100.00;97621.59;6077048;19;20010;-70
2023/11/03 02:26:39;;;;;;;10.55;3.40;;;;;;;8.40;100.00;97618.59;6073227;19;20426;-70
2023/11/03 02:28:44;;;;;;;10.70;3.88;;;;;;;8.45;100.00;97637.38;6071409;19;20002;-71
2023/11/03 02:30:49;;;;;;;9.60;3.35;;;;;;;8.47;100.00;97632.84;6074928;19;20014;-72
2023/11/03 02:32:54;;;;;;;10.38;3.30;;;;;;;8.44;100.00;97635.72;6073711;19;19999;-71
2023/11/03 02:34:59;;;;;;;12.20;3.53;;;;;;;8.47;100.00;97643.31;6074594;19;20429;-70
2023/11/03 02:37:04;;;;;;;11.23;2.60;;;;;;;8.48;100.00;97645.81;6073973;19;20002;-71
2023/11/03 02:39:09;;;;;;;13.25;3.83;;;;;;;8.52;100.00;97654.22;6074608;19;20006;-71
2023/11/03 02:41:17;;;;;;;8.18;3.55;;;;;;;8.52;100.00;97669.94;6075112;19;20380;-72
2023/11/03 02:43:22;;;;;;;6.68;1.95;;;;;;;8.48;100.00;97658.91;6071677;19;20316;-72
2023/11/03 02:45:27;;;;;;;14.65;2.90;;;;;;;8.44;100.00;97683.63;6071812;19;20002;-72
2023/11/03 02:47:31;;;;;;;7.88;2.83;;;;;;;8.42;100.00;97671.63;6073831;19;20014;-72
2023/11/03 02:49:34;;;;;;;12.10;3.08;;;;;;;8.38;100.00;97662.38;6073238;19;20510;-71
2023/11/03 02:51:39;;;;;;;10.25;2.55;;;;;;;8.30;100.00;97684.75;6076742;19;20010;-71
2023/11/03 02:53:44;;;;;;;5.53;1.90;;;;;;;8.29;100.00;97685.72;6071602;19;20027;-72
2023/11/03 02:55:48;;;;;;;8.18;1.88;;;;;;;8.20;100.00;97681.22;6075588;19;20006;-71
2023/11/03 02:57:56;;;;;;;8.43;2.20;;;;;;;8.24;100.00;97698.34;6072528;19;20002;-71
2023/11/03 03:00:01;;;;;;;4.00;1.67;;;;;;;8.22;100.00;97697.63;6074074;19;20007;-73
2023/11/03 03:02:04;;;;;;;12.23;2.65;;;;;;;8.26;100.00;97711.28;6071877;19;21311;-70
2023/11/03 03:04:10;;;;;;;6.72;2.70;;;;;;;8.21;100.00;97695.13;6073929;19;20764;-71
2023/11/03 03:06:15;;;;;;;11.93;3.20;;;;;;;8.12;100.00;97702.75;6073222;19;20014;-73
2023/11/03 03:08:20;;;;;;;16.25;3.95;;;;;;;8.10;100.00;97701.22;6075071;19;20146;-73
2023/11/03 03:10:25;;;;;;;10.80;2.83;;;;;;;8.10;100.00;97696.00;6074907;19;20233;-73
2023/11/03 03:12:32;;;;;;;14.15;2.83;;;;;;;8.11;100.00;97695.06;6066570;19;20503;-73
2023/11/03 03:14:40;;;;;;;3.45;1.92;;;;;;;8.07;100.00;97707.53;6071828;19;20003;-71
2023/11/03 03:16:45;;;;;;;10.45;2.47;;;;;;;8.07;100.00;97704.91;6073312;19;20007;-71
2023/11/03 03:18:50;;;;;;;17.83;2.78;;;;;;;8.08;100.00;97710.97;6074100;19;20006;-72
2023/11/03 03:20:55;;;;;;;7.25;2.50;;;;;;;8.12;100.00;97704.56;6074167;19;20066;-71
2023/11/03 03:22:57;;;;;;;10.25;3.17;;;;;;;8.14;100.00;97700.03;6074239;19;20054;-73
2023/11/03 03:25:03;;;;;;;7.85;3.10;;;;;;;8.13;100.00;97708.81;6074751;19;20117;-72
2023/11/03 03:27:06;;;;;;;7.03;2.88;;;;;;;8.16;100.00;97716.41;6072252;19;20009;-70
2023/11/03 03:29:11;;;;;;;8.10;2.60;;;;;;;8.19;100.00;97712.72;6072065;19;20015;-70
2023/11/03 03:31:20;;;;;;;9.52;2.67;;;;;;;8.20;100.00;97707.38;6071515;19;20086;-70
2023/11/03 03:33:25;;;;;;;6.65;2.92;;;;;;;8.23;100.00;97703.69;6074245;19;20003;-70
2023/11/03 03:35:30;;;;;;;8.98;2.85;;;;;;;8.28;100.00;97715.44;6074254;19;20006;-70
2023/11/03 03:37:35;;;;;;;6.30;3.15;;;;;;;8.28;100.00;97720.66;6075007;19;20039;-70
2023/11/03 03:39:38;;;;;;;7.47;2.65;;;;;;;8.32;100.00;97740.41;6076634;19;20002;-72
2023/11/03 03:41:42;;;;;;;;;;;;;;;8.36;100.00;97733.94;6080404;19;20042;-73
2023/11/03 03:43:50;;;;;;;9.32;2.33;;;;;;;8.39;100.00;97732.91;6081390;19;19932;-72
2023/11/03 03:45:55;;;;;;;7.00;2.40;;;;;;;8.43;100.00;97725.66;6078705;19;20320;-71
2023/11/03 03:48:03;;;;;;;14.48;2.42;;;;;;;8.42;100.00;97727.41;6074669;19;20010;-70
2023/11/03 03:50:07;;;;;;;15.15;2.75;;;;;;;8.41;100.00;97725.75;6078025;19;20451;-70
2023/11/03 03:52:12;;;;;;;7.70;2.03;;;;;;;8.41;100.00;97744.06;6078830;19;20023;-71
2023/11/03 03:54:20;;;;;;;6.10;2.00;;;;;;;8.49;100.00;97743.47;6079313;19;20593;-71
2023/11/03 03:56:25;;;;;;;11.68;2.55;;;;;;;8.55;100.00;97759.47;6078954;19;20006;-71
2023/11/03 03:58:30;;;;;;;7.47;2.38;;;;;;;8.59;100.00;97744.38;6079121;19;20003;-73
2023/11/03 04:00:35;;;;;;;18.02;3.13;;;;;;;8.64;100.00;97747.44;6069561;19;20006;-70
2023/11/03 04:02:40;;;;;;;17.17;3.30;;;;;;;8.62;100.00;97770.28;6075435;19;20008;-70
2023/11/03 04:04:48;;;;;;;11.48;2.88;;;;;;;8.69;100.00;97770.59;6079175;19;20017;-73
2023/11/03 04:06:53;;;;;;;8.93;2.42;;;;;;;8.68;100.00;97758.47;6078270;19;20015;-72
2023/11/03 04:09:01;;;;;;;14.82;3.55;;;;;;;8.66;100.00;97763.88;6077749;19;20116;-71
2023/11/03 04:11:06;;;;;;;18.83;3.42;;;;;;;8.68;100.00;97767.16;6077329;19;20006;-69
2023/11/03 04:13:11;;;;;;;17.70;3.83;;;;;;;8.73;100.00;97778.09;6077429;19;20034;-69
2023/11/03 04:15:16;;;;;;;14.20;3.28;;;;;;;8.75;100.00;97780.59;6079248;19;20018;-69
2023/11/03 04:17:21;;;;;;;14.43;3.58;;;;;;;8.79;100.00;97787.22;6074976;19;20015;-71
2023/11/03 04:19:26;;;;;;;12.02;4.93;;;;;;;8.84;100.00;97797.31;6078708;19;20002;-69
2023/11/03 04:21:33;;;;;;;8.93;3.45;;;;;;;8.81;100.00;97787.94;6077348;19;20099;-70
2023/11/03 04:23:39;;;;;;;17.98;3.15;;;;;;;8.82;100.00;97804.47;6077257;19;20570;-70
2023/11/03 04:25:44;;;;;;;8.85;3.22;;;;;;;8.81;100.00;97810.69;6077390;19;20369;-69
2023/11/03 04:27:52;;;;;;;29.20;4.20;;;;;;;8.78;100.00;97801.28;6076142;19;20098;-72
2023/11/03 04:29:57;;;;;;;15.60;4.03;;;;;;;8.77;100.00;97799.63;6070938;19;20379;-70
2023/11/03 04:32:01;;;;;;;17.23;4.53;;;;;;;8.73;100.00;97800.81;6076705;19;20097;-71
2023/11/03 04:34:06;;;;;;;16.10;3.00;;;;;;;8.69;100.00;97807.25;6075590;19;20010;-71
2023/11/03 04:36:12;;;;;;;15.40;3.20;;;;;;;8.65;100.00;97809.31;6075701;19;20019;-69
2023/11/03 04:38:20;;;;;;;11.40;3.20;;;;;;;8.65;100.00;97809.31;6076032;19;20038;-72
2023/11/03 04:40:25;;;;;;;5.55;2.40;;;;;;;8.66;100.00;97808.38;6077052;19;20507;-69
2023/11/03 04:42:30;;;;;;;11.80;2.30;;;;;;;8.65;100.00;97819.78;6077277;19;20007;-70
2023/11/03 04:44:35;;;;;;;15.65;3.00;;;;;;;8.63;100.00;97828.69;6073753;19;20006;-69
2023/11/03 04:46:40;;;;;;;8.07;2.00;;;;;;;8.64;100.00;97827.75;6076370;19;20471;-69
2023/11/03 04:48:46;;;;;;;16.85;3.28;;;;;;;8.63;100.00;97826.91;6070405;19;20006;-74
2023/11/03 04:50:51;;;;;;;12.68;2.97;;;;;;;8.62;100.00;97821.81;6072299;19;20011;-72
2023/11/03 04:52:56;;;;;;;13.27;2.85;;;;;;;8.61;100.00;97831.47;6073845;19;20023;-70
2023/11/03 04:55:01;;;;;;;22.75;4.93;;;;;;;8.63;100.00;97833.94;6076491;19;20483;-72
2023/11/03 04:57:06;;;;;;;7.20;2.45;;;;;;;8.61;100.00;97844.53;6077382;19;20015;-70
2023/11/03 04:59:11;;;;;;;18.13;3.70;;;;;;;8.59;100.00;97832.53;6077175;19;20006;-70
2023/11/03 05:01:18;;;;;;;12.93;3.22;;;;;;;8.59;100.00;97837.78;6073908;19;20530;-73
2023/11/03 05:03:23;;;;;;;13.48;2.85;;;;;;;8.58;100.00;97836.91;6076703;19;20007;-71
2023/11/03 05:05:32;;;;;;;5.55;2.42;;;;;;;8.60;100.00;97840.25;6074638;19;20014;-69
2023/11/03 05:07:40;;;;;;;19.70;3.55;;;;;;;8.63;100.00;97828.69;6074466;19;20014;-69
2023/11/03 05:09:45;;;;;;;12.45;4.10;;;;;;;8.63;100.00;97841.78;6076875;19;20041;-69
2023/11/03 05:11:53;;;;;;;18.10;3.78;;;;;;;8.62;100.00;97851.44;6077444;19;19998;-69
2023/11/03 05:13:56;;;;;;;15.43;3.08;;;;;;;8.63;100.00;97847.84;6077646;19;20006;-69
2023/11/03 05:16:05;;;;;;;12.43;3.35;;;;;;;8.64;100.00;97852.16;6076881;19;20011;-68
2023/11/03 05:18:10;;;;;;;5.57;2.30;;;;;;;8.66;100.00;97858.09;6076521;19;20515;-73
2023/11/03 05:20:15;;;;;;;13.85;2.80;;;;;;;8.67;100.00;97861.53;6070178;19;20421;-69
2023/11/03 05:22:20;;;;;;;11.68;3.38;;;;;;;8.67;100.00;97867.59;6077484;19;20007;-69
2023/11/03 05:24:25;;;;;;;12.18;2.17;;;;;;;8.67;100.00;97866.78;6073457;19;20871;-69
2023/11/03 05:26:30;;;;;;;8.77;2.38;;;;;;;8.67;100.00;97859.75;6075852;19;20002;-71
2023/11/03 05:28:39;;;;;;;11.23;2.20;;;;;;;8.65;100.00;97868.69;6074578;19;20023;-69
2023/11/03 05:30:44;;;;;;;9.30;2.67;;;;;;;8.69;100.00;97867.47;6077648;19;20006;-71
2023/11/03 05:32:49;;;;;;;10.73;2.70;;;;;;;8.68;100.00;97878.91;6070793;19;19999;-72
2023/11/03 05:34:54;;;;;;;8.88;2.88;;;;;;;8.69;100.00;97881.41;6068901;19;20007;-70
2023/11/03 05:36:59;;;;;;;17.77;2.88;;;;;;;8.67;100.00;97882.47;6077081;19;21357;-71
2023/11/03 05:39:04;;;;;;;10.68;2.80;;;;;;;8.59;100.00;97898.81;6076282;19;20003;-72
2023/11/03 05:41:10;;;;;;;17.38;3.65;;;;;;;8.57;100.00;97893.66;6074854;19;20011;-73
2023/11/03 05:43:15;;;;;;;11.07;3.85;;;;;;;8.52;100.00;97900.22;6077354;19;20017;-69
2023/11/03 05:45:22;;;;;;;14.65;4.50;;;;;;;8.51;100.00;97902.03;6075833;19;20002;-69
2023/11/03 05:47:28;;;;;;;17.30;3.08;;;;;;;8.52;100.00;97916.75;6077573;19;20006;-69
2023/11/03 05:49:36;;;;;;;11.48;2.55;;;;;;;8.53;100.00;97928.06;6077895;19;20621;-70
2023/11/03 05:51:42;;;;;;;9.80;2.75;;;;;;;8.56;100.00;97927.84;6070912;19;20014;-70
2023/11/03 05:53:47;;;;;;;6.72;2.13;;;;;;;8.62;100.00;97932.56;6071089;19;20013;-69
2023/11/03 05:55:56;;;;;;;15.90;2.40;;;;;;;8.63;100.00;97951.72;6078043;19;20010;-72
2023/11/03 05:58:00;;;;;;;7.93;2.20;;;;;;;8.59;100.00;97942.47;6075760;19;20002;-71
2023/11/03 06:00:09;;;;;;;8.48;2.33;;;;;;;8.54;100.00;97942.81;6075858;19;20007;-69
2023/11/03 06:02:18;;;;;;;12.05;2.67;;;;;;;8.52;100.00;97957.81;6071284;19;20010;-70
2023/11/03 06:04:23;;;;;;;12.38;2.95;;;;;;;8.53;100.00;97951.59;6072546;19;20089;-75
2023/11/03 06:06:28;;;;;;;9.98;2.22;;;;;;;8.50;100.00;97964.94;6076065;19;20372;-71
2023/11/03 06:08:35;;;;;;;8.07;3.67;;;;;;;8.46;100.00;97966.97;6078943;19;20006;-74
2023/11/03 06:10:38;;;;;;;12.55;2.80;;;;;;;8.46;100.00;97974.00;6078982;19;20006;-73
2023/11/03 06:12:43;;;;;;;8.98;3.20;;;;;;;8.44;100.00;97968.03;6078844;19;20609;-71
2023/11/03 06:14:48;;;;;;;11.52;2.70;;;;;;;8.44;100.00;97962.81;6077352;19;20322;-75
2023/11/03 06:16:53;;;;;;;15.82;3.90;;;;;;;8.42;100.00;97980.41;6078006;19;20011;-73
2023/11/03 06:19:00;;;;;;;12.73;3.28;;;;;;;8.37;100.00;97985.97;6075643;19;20443;-72
2023/11/03 06:21:06;;;;;;;17.50;3.92;;;;;;;8.40;100.00;97987.53;6077417;19;20361;-71
2023/11/03 06:23:11;;;;;;;19.70;4.43;;;;;;;8.35;100.00;97999.19;6075671;19;20053;-71
2023/11/03 06:25:16;;;;;;;12.75;3.53;;;;;;;8.31;100.00;97989.06;6078132;19;20074;-70
2023/11/03 06:27:18;;;;;;;17.48;3.55;;;;;;;8.30;100.00;97995.25;6077669;19;20443;-69
2023/11/03 06:29:23;;;;;;;11.95;3.05;;;;;;;8.31;100.00;98000.34;6074399;19;20565;-71
2023/11/03 06:31:31;;;;;;;12.13;4.20;;;;;;;8.25;100.00;98002.63;6077059;19;20006;-72
2023/11/03 06:33:39;;;;;;;18.90;3.13;;;;;;;8.29;100.00;98002.28;6075695;19;20475;-69
2023/11/03 06:35:46;;;;;;;11.60;3.05;;;;;;;8.27;100.00;98006.78;6076637;19;20010;-70
2023/11/03 06:37:51;;;;;;;10.57;3.40;;;;;;;8.24;100.00;98011.41;6074135;19;20007;-71
2023/11/03 06:39:55;;;;;;;9.52;3.60;;;;;;;8.25;100.00;98021.75;6074567;19;20081;-74
2023/11/03 06:42:00;;;;;;;13.18;3.65;;;;;;;8.31;100.00;98017.84;6075077;19;20458;-71
2023/11/03 06:44:06;;;;;;;15.20;3.97;;;;;;;8.31;100.00;98018.66;6074569;19;20011;-71
2023/11/03 06:46:12;;;;;;;18.88;3.65;;;;;;;8.33;100.00;98029.84;6073866;19;20011;-71
2023/11/03 06:48:17;;;;;;;20.05;3.58;;;;;;;8.31;100.00;98034.34;6072945;19;20011;-69
2023/11/03 06:50:22;;;;;;;16.20;4.03;;;;;;;8.33;100.00;98032.47;6074685;19;20610;-74
2023/11/03 06:52:30;;;;;;;15.52;3.22;;;;;;;8.35;100.00;98030.56;6068599;19;20019;-73
2023/11/03 06:54:35;;;;;;;19.33;4.97;;;;;;;8.37;100.00;98048.75;6072120;19;20115;-70
2023/11/03 06:56:43;;;;;;;12.27;3.28;;;;;;;8.41;100.00;98052.84;6072291;19;20002;-72
2023/11/03 06:58:46;;;;;;;10.60;2.78;;;;;;;8.42;100.00;98053.69;6074504;19;20050;-72
2023/11/03 07:00:51;;;;;;;10.35;3.13;;;;;;;8.41;100.00;98052.03;6074399;19;20006;-72
2023/11/03 07:02:56;;;;;;;8.32;2.75;;;;;;;8.46;100.00;98057.75;6070551;19;20042;-73
2023/11/03 07:05:02;;;;;;;18.27;3.80;;;;;;;8.45;100.00;98051.69;6074103;19;20011;-72
2023/11/03 07:07:07;;;;;;;17.15;3.33;;;;;;;8.50;100.00;98056.53;6074688;19;20013;-71
2023/11/03 07:09:16;;;;;;;18.38;3.70;;;;;;;8.51;100.00;98066.06;6073422;19;20006;-72
2023/11/03 07:11:21;;;;;;;12.02;3.10;;;;;;;8.53;100.00;98066.75;6071615;19;20024;-70
2023/11/03 07:13:28;;;;;;;11.88;2.75;;;;;;;8.54;100.00;98060.59;6074249;19;20874;-72
2023/11/03 07:15:36;;;;;;;9.15;2.85;;;;;;;8.50;100.00;98064.38;6081701;19;20041;-72
2023/11/03 07:17:41;;;;;;;13.25;3.30;;;;;;;8.51;100.00;98071.31;6081470;19;20168;-70
2023/11/03 07:19:46;;;;;;;12.18;2.83;;;;;;;8.53;100.00;98077.25;6082663;19;20041;-71
2023/11/03 07:21:51;;;;;;;16.58;3.50;;;;;;;8.54;100.00;98069.28;6079619;19;20320;-72
2023/11/03 07:23:56;;;;;;;11.15;2.85;;;;;;;8.54;100.00;98082.38;6077469;19;20652;-71
2023/11/03 07:26:04;;;;;;;8.25;2.33;;;;;;;8.57;100.00;98089.16;6078134;19;20010;-71
2023/11/03 07:28:09;;;;;;;15.23;3.53;;;;;;;8.62;100.00;98089.63;6080010;19;20444;-70
2023/11/03 07:30:15;;;;;;;12.90;3.50;;;;;;;8.68;100.00;98090.94;6080032;19;20006;-72
2023/11/03 07:32:20;;;;;;;23.80;4.25;;;;;;;8.69;100.00;98089.97;6079111;19;20007;-71
2023/11/03 07:34:22;;;;;;;16.63;3.67;;;;;;;8.70;100.00;98102.97;6075556;19;20003;-69
2023/11/03 07:36:27;;;;;;;16.33;3.80;;;;;;;8.71;100.00;98099.38;6081389;19;20317;-70
2023/11/03 07:38:32;;;;;;;13.88;3.65;;;;;;;8.76;100.00;98102.50;6082960;19;20006;-71
2023/11/03 07:40:34;;;;;;;12.85;3.42;;;;;;;8.82;100.00;98101.22;6084550;19;20379;-71
2023/11/03 07:42:43;;;;;;;9.45;3.38;;;;;;;8.79;100.00;98112.75;6082497;19;20546;-70
2023/11/03 07:44:50;;;;;;;14.15;2.92;;;;;;;8.79;100.00;98125.84;6085009;19;20010;-70
2023/11/03 07:46:55;;;;;;;19.15;4.07;;;;;;;8.84;100.00;98115.00;6083910;19;20455;-69
2023/11/03 07:49:00;;;;;;;18.13;3.83;;;;;;;8.81;100.00;98124.88;6082149;19;20073;-70
2023/11/03 07:51:08;;;;;;;19.17;3.28;;;;;;;8.74;100.00;98120.13;6075207;19;20006;-70
2023/11/03 07:53:13;;;;;;;10.32;2.33;;;;;;;8.74;100.00;98130.59;6074247;19;20089;-70
2023/11/03 07:55:18;;;;;;;15.40;3.17;;;;;;;8.72;100.00;98137.72;6078767;19;20011;-70
2023/11/03 07:57:24;;;;;;;16.38;3.88;;;;;;;8.72;100.00;98137.72;6062405;19;20003;-70
2023/11/03 07:59:32;;;;;;;9.73;2.42;;;;;;;8.75;100.00;98141.91;6083198;19;20425;-71
2023/11/03 08:01:37;;;;;;;13.85;3.50;;;;;;;8.74;100.00;98151.53;6079918;19;20541;-71
2023/11/03 08:03:42;;;;;;;15.05;4.18;;;;;;;8.75;100.00;98136.66;6076810;19;20007;-71
2023/11/03 08:05:47;;;;;;;16.58;3.15;;;;;;;8.73;100.00;98143.78;6077300;19;20017;-70
2023/11/03 08:07:53;;;;;;;13.65;2.50;;;;;;;8.73;100.00;98144.63;6071315;19;20022;-70
2023/11/03 08:09:59;;;;;;;10.82;2.55;;;;;;;8.78;100.00;98136.41;6075511;19;20020;-70
2023/11/03 08:12:08;;;;;;;14.35;3.00;;;;;;;8.83;100.00;98164.88;6073636;19;20002;-70
2023/11/03 08:14:13;;;;;;;20.75;3.88;;;;;;;8.99;100.00;98160.13;6073872;19;20551;-71
2023/11/03 08:16:22;;;;;;;21.40;3.95;;;;;;;8.93;100.00;98160.63;6073949;19;20073;-70
2023/11/03 08:18:30;;;;;;;8.77;3.42;;;;;;;8.91;100.00;98162.50;6073228;19;20034;-70
2023/11/03 08:20:35;;;;;;;5.72;2.58;;;;;;;8.98;100.00;98174.19;6072716;19;20038;-71
2023/11/03 08:22:40;;;;;;;11.15;3.80;;;;;;;8.99;100.00;98175.84;6071621;19;20026;-70
2023/11/03 08:24:45;;;;;;;11.05;2.97;;;;;;;8.97;100.00;98175.94;6071471;19;20013;-71
2023/11/03 08:26:51;;;;;;;7.65;2.85;;;;;;;8.96;100.00;98179.53;6075662;19;20764;-70
2023/11/03 08:29:01;;;;;;;8.98;3.35;;;;;;;8.96;100.00;98181.31;6074525;19;20006;-72
2023/11/03 08:31:06;;;;;;;15.88;3.08;;;;;;;8.95;100.00;98183.13;6077111;19;20010;-71
2023/11/03 08:33:14;;;;;;;9.77;2.83;;;;;;;8.95;100.00;98192.72;6074435;19;20045;-71
2023/11/03 08:35:20;;;;;;;12.50;2.53;;;;;;;8.95;100.00;98196.22;6071986;19;19999;-70
2023/11/03 08:37:25;;;;;;;22.45;3.58;;;;;;;8.98;100.00;98189.91;6064258;19;20010;-71
2023/11/03 08:39:31;;;;;;;18.38;3.80;;;;;;;8.97;100.00;98199.53;6070052;19;20368;-72
2023/11/03 08:41:36;;;;;;;9.45;2.88;;;;;;;8.98;100.00;98192.53;6071881;19;20007;-71
2023/11/03 08:43:41;;;;;;;14.43;3.53;;;;;;;8.99;100.00;98205.50;6069714;19;20011;-71
2023/11/03 08:45:46;;;;;;;11.30;3.65;;;;;;;8.98;100.00;98203.84;6073426;19;20013;-72
2023/11/03 08:47:54;;;;;;;14.27;3.20;;;;;;;9.04;100.00;98205.16;6072610;19;20511;-70
2023/11/03 08:50:02;;;;;;;20.63;5.85;;;;;;;9.06;100.00;98213.72;6073670;19;20432;-71
2023/11/03 08:52:07;;;;;;;12.50;3.50;;;;;;;9.07;100.00;98214.56;6070392;19;20014;-72
2023/11/03 08:54:12;;;;;;;18.33;3.50;;;;;;;9.05;100.00;98213.84;6069484;19;19999;-71
2023/11/03 08:56:20;;;;;;;13.57;3.20;;;;;;;9.06;100.00;98213.72;6069379;19;20377;-71
2023/11/03 08:58:25;;;;;;;9.50;2.95;;;;;;;9.07;100.00;98222.41;6071184;19;20007;-70
2023/11/03 09:00:36;;;;;;;10.20;2.42;;;;;;;9.11;100.00;98226.44;6069501;19;20003;-69
2023/11/03 09:02:38;;;;;;;9.30;3.58;;;;;;;9.14;100.00;98234.09;6071892;19;20124;-70
2023/11/03 09:04:44;;;;;;;10.00;2.92;;;;;;;9.16;100.00;98235.66;6071080;19;20431;-70
2023/11/03 09:06:51;;;;;;;9.45;2.25;;;;;;;9.19;100.00;98240.66;6068422;19;20021;-71
2023/11/03 09:08:56;;;;;;;12.75;2.55;;;;;;;9.21;100.00;98243.97;6069730;19;20556;-71
2023/11/03 09:11:04;;;;;;;13.40;2.88;;;;;;;9.22;100.00;98245.66;6069842;19;19998;-70
2023/11/03 09:13:09;;;;;;;14.50;3.22;;;;;;;9.29;100.00;98253.88;6070620;19;20505;-71
2023/11/03 09:15:14;;;;;;;13.02;2.55;;;;;;;9.33;100.00;98263.19;6073382;19;20006;-71
2023/11/03 09:17:20;;;;;;;15.45;2.80;;;;;;;9.37;100.00;98258.53;6073982;19;20006;-72
2023/11/03 09:19:24;;;;;;;12.85;3.63;;;;;;;9.45;100.00;98266.63;6067756;19;20003;-72
2023/11/03 09:21:30;;;;;;;12.40;3.47;;;;;;;9.41;100.00;98267.84;6069754;19;20126;-71
2023/11/03 09:23:38;;;;;;;13.45;2.88;;;;;;;9.45;100.00;98257.00;6064312;19;20037;-70
2023/11/03 09:25:43;;;;;;;12.73;2.33;;;;;;;9.39;100.00;98261.88;6072244;19;20046;-69
2023/11/03 09:27:50;;;;;;;21.40;4.00;;;;;;;9.46;100.00;98278.81;6070916;19;20027;-69
2023/11/03 09:29:55;;;;;;;15.95;3.10;;;;;;;9.43;100.00;98273.81;6072925;19;20030;-70
2023/11/03 09:31:57;;;;;;;15.40;3.40;;;;;;;9.40;100.00;98267.00;6066520;19;20011;-70
2023/11/03 09:34:02;;;;;;;14.05;3.50;;;;;;;9.41;100.00;98270.47;6071142;19;20712;-72
2023/11/03 09:36:09;;;;;;;13.88;3.33;;;;;;;9.35;100.00;98270.94;6070867;19;20038;-71
2023/11/03 09:38:19;;;;;;;16.67;3.20;;;;;;;9.36;100.00;98273.41;6069654;19;20011;-71
2023/11/03 09:40:26;;;;;;;8.07;3.30;;;;;;;9.39;100.00;98267.94;6069306;19;20006;-70
2023/11/03 09:42:32;;;;;;;10.52;3.13;;;;;;;9.36;100.00;98275.22;6068207;19;20007;-71
2023/11/03 09:44:37;;;;;;;8.60;3.03;;;;;;;9.36;100.00;98277.84;6067154;19;20013;-72
2023/11/03 09:46:43;;;;;;;13.55;3.25;;;;;;;9.41;100.00;98275.69;6071166;19;20006;-73
2023/11/03 09:48:50;;;;;;;15.18;3.78;;;;;;;9.30;100.00;98283.56;6066473;19;20014;-72